createdAt,value
2022-08-28T00:00:54.662Z,88.84
2022-08-28T00:03:21.930Z,88.05
2022-08-28T00:05:48.529Z,88.59
2022-08-28T00:08:16.712Z,87.21
2022-08-28T00:10:44.038Z,86.89
2022-08-28T00:13:18.945Z,87.88
2022-08-28T00:15:47.705Z,87.63
2022-08-28T00:18:14.495Z,88.15
2022-08-28T00:20:41.887Z,87.89
2022-08-28T00:23:09.060Z,87.84
2022-08-28T00:25:36.727Z,88.66
2022-08-28T00:28:10.315Z,88.36
2022-08-28T00:30:59.185Z,88.49
2022-08-28T00:33:27.664Z,88.33
2022-08-28T00:35:55.828Z,87.19
2022-08-28T00:38:24.529Z,88.76
2022-08-28T00:40:54.643Z,87.57
2022-08-28T00:43:40.015Z,88.36
2022-08-28T00:46:15.290Z,88.01
2022-08-28T00:48:42.087Z,87.17
2022-08-28T00:51:28.229Z,87.57
2022-08-28T00:53:59.039Z,87.40
2022-08-28T00:56:27.869Z,87.22
2022-08-28T00:58:56.867Z,87.49
2022-08-28T01:01:24.007Z,87.67
2022-08-28T01:03:50.919Z,88.21
2022-08-28T01:06:20.755Z,88.13
2022-08-28T01:08:50.527Z,87.21
2022-08-28T01:11:19.574Z,87.59
2022-08-28T01:13:48.524Z,87.29
2022-08-28T01:16:18.690Z,87.11
2022-08-28T01:18:46.543Z,87.85
2022-08-28T01:21:27.998Z,87.90
2022-08-28T01:23:58.682Z,87.39
2022-08-28T01:26:28.292Z,87.96
2022-08-28T01:28:58.210Z,86.96
2022-08-28T01:31:26.344Z,86.02
2022-08-28T01:33:53.025Z,86.51
2022-08-28T01:36:19.800Z,86.36
2022-08-28T01:38:50.283Z,87.61
2022-08-28T01:41:16.910Z,86.77
2022-08-28T01:43:43.920Z,86.75
2022-08-28T01:46:12.512Z,86.93
2022-08-28T01:48:42.511Z,87.22
2022-08-28T01:51:10.274Z,87.17
2022-08-28T01:53:36.941Z,88.57
2022-08-28T01:56:09.256Z,88.62
2022-08-28T01:58:38.465Z,88.40
2022-08-28T02:01:13.989Z,88.36
2022-08-28T02:03:43.248Z,88.01
2022-08-28T02:06:11.153Z,87.22
2022-08-28T02:08:38.169Z,87.20
2022-08-28T02:11:06.417Z,86.68
2022-08-28T02:13:35.088Z,89.05
2022-08-28T02:16:02.337Z,87.16
2022-08-28T02:18:29.084Z,86.14
2022-08-28T02:20:56.122Z,86.75
2022-08-28T02:23:22.891Z,87.53
2022-08-28T02:25:49.834Z,86.46
2022-08-28T02:28:17.589Z,86.98
2022-08-28T02:30:44.410Z,87.21
2022-08-28T02:33:11.376Z,86.90
2022-08-28T02:35:40.243Z,87.44
2022-08-28T02:38:06.954Z,86.75
2022-08-28T02:40:33.677Z,86.16
2022-08-28T02:43:00.473Z,86.55
2022-08-28T02:45:27.275Z,86.69
2022-08-28T02:47:54.637Z,86.99
2022-08-28T02:50:21.437Z,85.92
2022-08-28T02:52:48.379Z,86.66
2022-08-28T02:55:18.690Z,86.64
2022-08-28T02:57:47.067Z,87.09
2022-08-28T03:00:19.827Z,86.44
2022-08-28T03:02:47.897Z,88.29
2022-08-28T03:05:17.420Z,86.88
2022-08-28T03:07:44.492Z,87.75
2022-08-28T03:10:11.500Z,88.19
2022-08-28T03:12:38.642Z,86.94
2022-08-28T03:15:07.778Z,87.37
2022-08-28T03:17:36.962Z,87.41
2022-08-28T03:20:09.225Z,88.57
2022-08-28T03:22:54.506Z,89.37
2022-08-28T03:25:22.469Z,88.15
2022-08-28T03:27:49.932Z,88.02
2022-08-28T03:30:18.007Z,88.63
2022-08-28T03:32:44.661Z,88.33
2022-08-28T03:35:12.069Z,88.30
2022-08-28T03:37:38.990Z,87.52
2022-08-28T03:40:07.019Z,88.42
2022-08-28T03:42:33.919Z,88.48
2022-08-28T03:45:00.632Z,89.36
2022-08-28T03:47:28.380Z,88.72
2022-08-28T03:49:57.751Z,89.31
2022-08-28T03:52:25.074Z,89.02
2022-08-28T03:54:52.724Z,89.00
2022-08-28T03:57:21.634Z,90.11
2022-08-28T03:59:50.271Z,89.28
2022-08-28T04:02:19.289Z,90.04
2022-08-28T04:04:50.631Z,89.12
2022-08-28T04:07:19.266Z,89.08
2022-08-28T04:09:46.499Z,89.66
2022-08-28T04:12:14.448Z,89.31
2022-08-28T04:14:41.082Z,89.21
2022-08-28T04:17:08.604Z,89.61
2022-08-28T04:19:35.900Z,88.69
2022-08-28T04:22:02.545Z,87.99
2022-08-28T04:24:29.409Z,88.56
2022-08-28T04:26:56.029Z,88.73
2022-08-28T04:29:23.201Z,88.16
2022-08-28T04:31:50.469Z,89.30
2022-08-28T04:34:17.980Z,89.03
2022-08-28T04:36:44.921Z,89.33
2022-08-28T04:39:11.697Z,89.27
2022-08-28T04:41:38.772Z,89.27
2022-08-28T04:44:06.411Z,89.32
2022-08-28T04:46:33.243Z,89.04
2022-08-28T04:49:00.180Z,89.45
2022-08-28T04:51:27.253Z,89.25
2022-08-28T04:53:54.149Z,89.26
2022-08-28T04:56:20.738Z,89.40
2022-08-28T04:58:47.730Z,90.54
2022-08-28T05:01:18.880Z,89.81
2022-08-28T05:03:52.221Z,89.06
2022-08-28T05:06:18.917Z,89.80
2022-08-28T05:08:45.533Z,88.76
2022-08-28T05:11:32.742Z,88.15
2022-08-28T05:14:01.433Z,89.49
2022-08-28T05:16:28.169Z,88.80
2022-08-28T05:18:54.832Z,89.50
2022-08-28T05:21:22.965Z,88.33
2022-08-28T05:23:53.292Z,87.60
2022-08-28T05:26:20.454Z,87.82
2022-08-28T05:28:48.430Z,88.22
2022-08-28T05:31:21.105Z,88.62
2022-08-28T05:33:49.151Z,88.58
2022-08-28T05:36:17.582Z,88.69
2022-08-28T05:38:44.497Z,89.75
2022-08-28T05:41:11.903Z,89.53
2022-08-28T05:43:39.467Z,89.91
2022-08-28T05:46:11.471Z,90.04
2022-08-28T05:48:39.737Z,90.58
2022-08-28T05:51:19.401Z,90.30
2022-08-28T05:53:47.144Z,89.42
2022-08-28T05:56:20.029Z,89.95
2022-08-28T05:58:46.774Z,90.34
2022-08-28T06:01:23.303Z,89.56
2022-08-28T06:03:58.410Z,90.22
2022-08-28T06:06:28.436Z,89.29
2022-08-28T06:08:59.964Z,89.91
2022-08-28T06:11:31.203Z,89.77
2022-08-28T06:14:02.604Z,89.67
2022-08-28T06:16:31.652Z,89.85
2022-08-28T06:18:59.062Z,89.48
2022-08-28T06:21:26.059Z,88.41
2022-08-28T06:23:52.708Z,88.02
2022-08-28T06:26:19.315Z,88.15
2022-08-28T06:28:46.050Z,87.63
2022-08-28T06:31:25.016Z,86.98
2022-08-28T06:33:57.962Z,87.50
2022-08-28T06:36:27.526Z,86.62
2022-08-28T06:38:58.080Z,85.29
2022-08-28T06:41:27.177Z,85.21
2022-08-28T06:43:54.719Z,85.37
2022-08-28T06:46:22.364Z,83.62
2022-08-28T06:48:48.992Z,83.86
2022-08-28T06:51:15.566Z,84.33
2022-08-28T06:53:44.962Z,83.49
2022-08-28T06:56:25.895Z,83.45
2022-08-28T06:58:56.671Z,82.49
2022-08-28T07:01:30.460Z,82.59
2022-08-28T07:04:00.561Z,81.95
2022-08-28T07:06:32.437Z,81.47
2022-08-28T07:08:59.027Z,81.85
2022-08-28T07:11:29.167Z,82.65
2022-08-28T07:13:56.665Z,81.90
2022-08-28T07:16:26.783Z,82.19
2022-08-28T07:18:54.193Z,81.48
2022-08-28T07:21:21.074Z,80.99
2022-08-28T07:23:48.148Z,79.95
2022-08-28T07:26:23.340Z,79.51
2022-08-28T07:28:51.794Z,79.11
2022-08-28T07:31:26.319Z,78.78
2022-08-28T07:33:54.972Z,77.87
2022-08-28T07:36:29.476Z,78.16
2022-08-28T07:38:59.073Z,77.32
2022-08-28T07:41:28.732Z,77.66
2022-08-28T07:44:13.995Z,78.17
2022-08-28T07:46:41.457Z,75.65
2022-08-28T07:49:08.964Z,76.36
2022-08-28T07:51:36.164Z,76.25
2022-08-28T07:54:04.302Z,75.09
2022-08-28T07:56:31.533Z,71.42
2022-08-28T07:58:59.455Z,74.01
2022-08-28T08:01:29.680Z,74.43
2022-08-28T08:04:01.599Z,73.51
2022-08-28T08:06:34.361Z,73.54
2022-08-28T08:09:02.224Z,72.47
2022-08-28T08:11:32.506Z,72.37
2022-08-28T08:14:04.750Z,72.25
2022-08-28T08:16:35.584Z,71.75
2022-08-28T08:19:04.032Z,72.09
2022-08-28T08:21:31.563Z,70.56
2022-08-28T08:23:58.975Z,69.87
2022-08-28T08:26:28.256Z,67.36
2022-08-28T08:28:55.583Z,65.76
2022-08-28T08:31:35.227Z,65.78
2022-08-28T08:34:04.707Z,69.82
2022-08-28T08:36:34.771Z,65.38
2022-08-28T08:39:02.106Z,64.54
2022-08-28T08:41:48.328Z,62.47
2022-08-28T08:44:33.216Z,65.12
2022-08-28T08:47:24.957Z,65.36
2022-08-28T08:49:57.542Z,65.86
2022-08-28T08:52:37.876Z,64.79
2022-08-28T08:55:24.304Z,62.76
2022-08-28T08:58:09.470Z,65.73
2022-08-28T09:01:13.895Z,64.30
2022-08-28T09:04:00.986Z,67.92
2022-08-28T09:06:51.677Z,67.77
2022-08-28T09:09:48.274Z,64.28
2022-08-28T09:12:23.066Z,62.02
2022-08-28T09:15:15.233Z,62.72
2022-08-28T09:17:55.944Z,58.51
2022-08-28T09:20:32.754Z,61.43
2022-08-28T09:23:00.428Z,60.04
2022-08-28T09:25:44.308Z,58.81
2022-08-28T09:28:30.394Z,59.15
2022-08-28T09:30:59.020Z,59.25
2022-08-28T09:33:40.124Z,57.25
2022-08-28T09:36:29.944Z,59.08
2022-08-28T09:39:33.824Z,57.31
2022-08-28T09:42:25.320Z,58.13
2022-08-28T09:45:09.092Z,58.82
2022-08-28T09:47:48.732Z,58.59
2022-08-28T09:50:15.468Z,58.49
2022-08-28T09:52:42.178Z,59.11
2022-08-28T09:55:12.601Z,59.29
2022-08-28T09:57:44.701Z,60.60
2022-08-28T10:00:11.823Z,57.66
2022-08-28T10:02:48.497Z,56.51
2022-08-28T10:05:19.053Z,58.11
2022-08-28T10:08:01.234Z,57.43
2022-08-28T10:11:01.209Z,58.15
2022-08-28T10:13:33.677Z,58.83
2022-08-28T10:16:51.073Z,58.93
2022-08-28T10:19:44.801Z,56.69
2022-08-28T10:22:14.812Z,57.17
2022-08-28T10:24:55.489Z,58.97
2022-08-28T10:27:59.938Z,58.16
2022-08-28T10:30:30.453Z,58.92
2022-08-28T10:33:19.263Z,57.01
2022-08-28T10:36:33.842Z,53.36
2022-08-28T10:39:20.037Z,53.86
2022-08-28T10:41:46.643Z,55.68
2022-08-28T10:44:26.066Z,54.14
2022-08-28T10:47:00.109Z,62.31
2022-08-28T10:49:39.087Z,57.47
2022-08-28T10:52:13.659Z,49.70
2022-08-28T10:54:49.368Z,49.30
2022-08-28T10:57:47.354Z,51.58
2022-08-28T11:00:18.539Z,54.60
2022-08-28T11:02:50.134Z,51.32
2022-08-28T11:05:23.235Z,48.93
2022-08-28T11:07:55.360Z,51.82
2022-08-28T11:10:40.255Z,52.57
2022-08-28T11:13:09.665Z,55.50
2022-08-28T11:15:37.344Z,58.03
2022-08-28T11:18:16.425Z,52.40
2022-08-28T11:20:57.387Z,51.46
2022-08-28T11:23:50.315Z,52.08
2022-08-28T11:26:40.754Z,45.32
2022-08-28T11:29:08.302Z,54.26
2022-08-28T11:31:38.349Z,57.63
2022-08-28T11:34:06.376Z,59.71
2022-08-28T11:36:32.947Z,49.68
2022-08-28T11:39:04.053Z,51.96
2022-08-28T11:41:36.637Z,55.19
2022-08-28T11:44:09.404Z,49.60
2022-08-28T11:46:42.445Z,52.17
2022-08-28T11:49:25.453Z,48.35
2022-08-28T11:52:07.583Z,51.86
2022-08-28T11:54:55.598Z,55.79
2022-08-28T11:57:53.472Z,56.44
2022-08-28T12:00:27.376Z,53.62
2022-08-28T12:03:15.188Z,52.55
2022-08-28T12:05:48.407Z,52.73
2022-08-28T12:08:53.348Z,48.36
2022-08-28T12:11:42.020Z,48.58
2022-08-28T12:14:09.338Z,51.00
2022-08-28T12:16:58.933Z,50.47
2022-08-28T12:19:32.867Z,48.79
2022-08-28T12:22:05.219Z,54.37
2022-08-28T12:24:34.198Z,50.87
2022-08-28T12:27:03.524Z,47.91
2022-08-28T12:29:43.440Z,47.39
2022-08-28T12:32:37.732Z,52.68
2022-08-28T12:35:08.357Z,52.44
2022-08-28T12:37:52.607Z,47.30
2022-08-28T12:40:27.724Z,54.53
2022-08-28T12:43:02.659Z,45.86
2022-08-28T12:45:39.353Z,47.29
2022-08-28T12:48:28.191Z,47.14
2022-08-28T12:51:03.246Z,48.46
2022-08-28T12:53:45.336Z,46.43
2022-08-28T12:56:14.652Z,43.14
2022-08-28T12:58:42.217Z,42.42
2022-08-28T13:01:33.251Z,42.57
2022-08-28T13:04:04.468Z,39.93
2022-08-28T13:06:37.367Z,44.90
2022-08-28T13:09:16.234Z,40.29
2022-08-28T13:11:49.462Z,40.81
2022-08-28T13:14:43.233Z,38.82
2022-08-28T13:17:11.999Z,40.26
2022-08-28T13:19:39.237Z,38.90
2022-08-28T13:22:35.529Z,40.96
2022-08-28T13:25:05.339Z,47.03
2022-08-28T13:27:32.585Z,41.78
2022-08-28T13:30:00.046Z,37.54
2022-08-28T13:32:30.127Z,37.09
2022-08-28T13:35:05.649Z,39.59
2022-08-28T13:37:43.788Z,34.88
2022-08-28T13:40:30.321Z,37.31
2022-08-28T13:43:07.092Z,41.82
2022-08-28T13:45:42.413Z,37.42
2022-08-28T13:48:17.050Z,39.97
2022-08-28T13:50:46.521Z,40.47
2022-08-28T13:53:17.648Z,40.83
2022-08-28T13:55:45.400Z,40.90
2022-08-28T13:58:14.080Z,43.58
2022-08-28T14:00:47.421Z,44.05
2022-08-28T14:03:32.951Z,43.80
2022-08-28T14:05:59.914Z,44.52
2022-08-28T14:08:26.631Z,43.36
2022-08-28T14:10:53.285Z,44.84
2022-08-28T14:13:20.693Z,44.87
2022-08-28T14:15:47.581Z,44.75
2022-08-28T14:18:14.349Z,44.13
2022-08-28T14:20:41.256Z,44.70
2022-08-28T14:23:11.436Z,45.78
2022-08-28T14:25:47.406Z,45.67
2022-08-28T14:28:14.981Z,45.54
2022-08-28T14:30:52.904Z,46.02
2022-08-28T14:33:20.526Z,46.24
2022-08-28T14:35:48.878Z,46.67
2022-08-28T14:38:16.738Z,47.34
2022-08-28T14:40:44.356Z,46.01
2022-08-28T14:43:13.260Z,45.50
2022-08-28T14:45:49.638Z,47.33
2022-08-28T14:48:18.540Z,45.46
2022-08-28T14:50:48.527Z,45.54
2022-08-28T14:53:17.276Z,46.83
2022-08-28T14:55:46.733Z,46.75
2022-08-28T14:58:14.845Z,45.14
2022-08-28T15:00:44.951Z,44.73
2022-08-28T15:03:12.444Z,43.70
2022-08-28T15:05:39.829Z,44.14
2022-08-28T15:08:14.717Z,45.20
2022-08-28T15:10:42.843Z,43.64
2022-08-28T15:13:10.557Z,43.45
2022-08-28T15:15:42.333Z,41.51
2022-08-28T15:18:10.635Z,43.39
2022-08-28T15:20:42.694Z,40.19
2022-08-28T15:23:10.837Z,41.20
2022-08-28T15:25:37.879Z,40.30
2022-08-28T15:28:04.721Z,40.22
2022-08-28T15:30:31.393Z,39.55
2022-08-28T15:32:58.177Z,40.72
2022-08-28T15:35:24.860Z,43.09
2022-08-28T15:37:51.556Z,43.29
2022-08-28T15:40:37.037Z,41.83
2022-08-28T15:43:03.819Z,42.86
2022-08-28T15:45:30.452Z,42.72
2022-08-28T15:47:58.517Z,42.15
2022-08-28T15:50:25.157Z,41.50
2022-08-28T15:52:53.435Z,42.56
2022-08-28T15:55:20.389Z,41.66
2022-08-28T15:57:47.055Z,43.23
2022-08-28T16:00:14.985Z,43.61
2022-08-28T16:02:42.397Z,44.12
2022-08-28T16:05:09.590Z,44.79
2022-08-28T16:07:36.316Z,43.08
2022-08-28T16:10:09.373Z,44.73
2022-08-28T16:12:39.287Z,44.38
2022-08-28T16:15:07.432Z,44.51
2022-08-28T16:17:34.181Z,43.89
2022-08-28T16:20:00.788Z,43.75
2022-08-28T16:22:27.600Z,45.12
2022-08-28T16:24:54.594Z,43.39
2022-08-28T16:27:22.146Z,44.15
2022-08-28T16:29:52.927Z,42.86
2022-08-28T16:32:19.884Z,44.36
2022-08-28T16:34:46.535Z,44.50
2022-08-28T16:37:18.694Z,45.34
2022-08-28T16:39:46.378Z,44.25
2022-08-28T16:42:12.982Z,42.90
2022-08-28T16:44:39.887Z,43.10
2022-08-28T16:47:07.037Z,43.73
2022-08-28T16:49:33.750Z,44.04
2022-08-28T16:52:00.568Z,44.58
2022-08-28T16:54:27.207Z,44.16
2022-08-28T16:56:53.907Z,44.76
2022-08-28T16:59:23.472Z,45.83
2022-08-28T17:01:52.785Z,45.05
2022-08-28T17:04:21.069Z,46.22
2022-08-28T17:06:47.719Z,46.80
2022-08-28T17:09:14.462Z,47.06
2022-08-28T17:11:41.086Z,47.63
2022-08-28T17:14:09.071Z,47.61
2022-08-28T17:16:35.758Z,47.78
2022-08-28T17:19:02.413Z,47.92
2022-08-28T17:21:47.572Z,46.99
2022-08-28T17:24:14.333Z,46.67
2022-08-28T17:26:42.546Z,47.32
2022-08-28T17:29:09.468Z,47.39
2022-08-28T17:31:36.520Z,47.99
2022-08-28T17:34:03.260Z,48.78
2022-08-28T17:36:33.382Z,48.82
2022-08-28T17:39:03.025Z,48.49
2022-08-28T17:41:29.684Z,49.54
2022-08-28T17:43:56.366Z,49.02
2022-08-28T17:46:22.993Z,49.25
2022-08-28T17:48:55.705Z,48.84
2022-08-28T17:51:42.161Z,48.98
2022-08-28T17:54:10.868Z,49.92
2022-08-28T17:56:37.571Z,49.60
2022-08-28T17:59:04.858Z,49.75
2022-08-28T18:01:31.620Z,50.36
2022-08-28T18:03:58.324Z,50.23
2022-08-28T18:06:25.062Z,50.34
2022-08-28T18:08:51.949Z,50.08
2022-08-28T18:11:21.901Z,51.01
2022-08-28T18:13:48.549Z,50.92
2022-08-28T18:16:15.692Z,50.93
2022-08-28T18:18:42.862Z,51.19
2022-08-28T18:21:10.660Z,50.73
2022-08-28T18:23:37.541Z,50.99
2022-08-28T18:26:04.270Z,51.73
2022-08-28T18:28:32.342Z,51.87
2022-08-28T18:31:00.899Z,52.24
2022-08-28T18:33:27.572Z,50.88
2022-08-28T18:35:54.322Z,52.08
2022-08-28T18:38:22.642Z,52.30
2022-08-28T18:40:49.457Z,51.99
2022-08-28T18:43:20.142Z,52.82
2022-08-28T18:45:47.122Z,52.96
2022-08-28T18:48:15.911Z,53.78
2022-08-28T18:50:46.285Z,53.71
2022-08-28T18:53:14.956Z,53.62
2022-08-28T18:55:42.000Z,53.20
2022-08-28T18:58:14.928Z,53.10
2022-08-28T19:00:42.526Z,53.34
2022-08-28T19:03:09.898Z,52.90
2022-08-28T19:05:37.420Z,53.24
2022-08-28T19:08:04.642Z,52.41
2022-08-28T19:10:34.395Z,52.69
2022-08-28T19:13:02.502Z,53.39
2022-08-28T19:15:29.681Z,53.14
2022-08-28T19:17:56.364Z,53.08
2022-08-28T19:20:23.199Z,53.57
2022-08-28T19:22:49.973Z,53.48
2022-08-28T19:25:28.009Z,53.44
2022-08-28T19:27:59.094Z,53.45
2022-08-28T19:30:27.595Z,53.53
2022-08-28T19:32:54.893Z,52.85
2022-08-28T19:35:24.180Z,52.67
2022-08-28T19:37:52.455Z,52.67
2022-08-28T19:40:20.882Z,53.11
2022-08-28T19:42:49.916Z,51.94
2022-08-28T19:45:17.172Z,52.92
2022-08-28T19:47:44.103Z,52.83
2022-08-28T19:50:12.247Z,53.24
2022-08-28T19:52:39.658Z,53.00
2022-08-28T19:55:07.766Z,52.74
2022-08-28T19:57:35.017Z,52.96
2022-08-28T20:00:02.596Z,53.21
2022-08-28T20:02:29.543Z,52.83
2022-08-28T20:04:56.512Z,52.92
2022-08-28T20:07:24.994Z,53.36
2022-08-28T20:09:52.229Z,52.35
2022-08-28T20:12:19.772Z,53.20
2022-08-28T20:14:47.127Z,53.35
2022-08-28T20:17:14.080Z,52.47
2022-08-28T20:19:41.493Z,52.85
2022-08-28T20:22:08.204Z,52.56
2022-08-28T20:24:35.287Z,52.94
2022-08-28T20:27:02.025Z,53.03
2022-08-28T20:29:29.241Z,53.51
2022-08-28T20:31:56.371Z,53.61
2022-08-28T20:34:23.771Z,53.34
2022-08-28T20:36:50.789Z,53.10
2022-08-28T20:39:17.770Z,53.18
2022-08-28T20:41:46.076Z,53.09
2022-08-28T20:44:15.438Z,53.89
2022-08-28T20:46:42.861Z,54.05
2022-08-28T20:49:11.668Z,52.62
2022-08-28T20:51:58.753Z,53.43
2022-08-28T20:54:28.163Z,54.04
2022-08-28T20:56:57.266Z,53.35
2022-08-28T20:59:28.736Z,52.10
2022-08-28T21:02:01.252Z,51.36
2022-08-28T21:04:30.231Z,51.22
2022-08-28T21:06:57.744Z,52.65
2022-08-28T21:09:40.977Z,51.89
2022-08-28T21:12:11.779Z,53.02
2022-08-28T21:14:38.637Z,52.44
2022-08-28T21:17:06.767Z,52.97
2022-08-28T21:19:37.241Z,53.26
2022-08-28T21:22:07.560Z,52.35
2022-08-28T21:24:34.577Z,52.61
2022-08-28T21:27:02.293Z,52.98
2022-08-28T21:29:28.973Z,52.76
2022-08-28T21:31:55.752Z,52.93
2022-08-28T21:34:22.421Z,52.46
2022-08-28T21:36:50.712Z,52.86
2022-08-28T21:39:20.649Z,53.39
2022-08-28T21:41:47.929Z,53.72
2022-08-28T21:44:14.605Z,54.66
2022-08-28T21:46:41.259Z,53.55
2022-08-28T21:49:08.021Z,53.33
2022-08-28T21:51:34.720Z,53.67
2022-08-28T21:54:01.406Z,54.45
2022-08-28T21:56:28.911Z,54.21
2022-08-28T21:58:58.626Z,54.38
2022-08-28T22:01:26.466Z,55.64
2022-08-28T22:03:55.152Z,55.23
2022-08-28T22:06:24.057Z,54.69
2022-08-28T22:08:52.392Z,55.93
2022-08-28T22:11:24.868Z,55.58
2022-08-28T22:13:53.121Z,54.85
2022-08-28T22:16:20.869Z,55.64
2022-08-28T22:18:47.545Z,55.41
2022-08-28T22:21:36.882Z,55.90
2022-08-28T22:24:04.529Z,55.36
2022-08-28T22:26:31.293Z,54.11
2022-08-28T22:28:58.457Z,53.94
2022-08-28T22:31:25.199Z,54.93
2022-08-28T22:33:52.594Z,53.76
2022-08-28T22:36:20.927Z,54.16
2022-08-28T22:38:52.458Z,53.76
2022-08-28T22:41:20.443Z,53.83
2022-08-28T22:43:49.789Z,53.80
2022-08-28T22:46:16.665Z,54.04
2022-08-28T22:48:52.425Z,53.87
2022-08-28T22:51:19.622Z,54.11
2022-08-28T22:53:47.136Z,53.94
2022-08-28T22:56:14.341Z,54.22
2022-08-28T22:58:41.823Z,54.16
2022-08-28T23:01:13.183Z,54.23
2022-08-28T23:03:40.818Z,54.10
2022-08-28T23:06:07.859Z,54.21
2022-08-28T23:08:35.005Z,54.30
2022-08-28T23:11:01.963Z,54.42
2022-08-28T23:13:30.306Z,54.49
2022-08-28T23:15:57.512Z,54.86
2022-08-28T23:18:24.783Z,55.23
2022-08-28T23:20:52.419Z,55.96
2022-08-28T23:23:20.040Z,56.35
2022-08-28T23:25:47.192Z,57.09
2022-08-28T23:28:13.774Z,56.94
2022-08-28T23:30:48.364Z,56.88
2022-08-28T23:33:23.729Z,57.05
2022-08-28T23:35:51.916Z,57.38
2022-08-28T23:38:18.847Z,57.41
2022-08-28T23:40:46.230Z,58.09
2022-08-28T23:43:12.828Z,58.21
2022-08-28T23:45:41.979Z,57.72
2022-08-28T23:48:09.209Z,57.93
2022-08-28T23:50:36.189Z,58.35
2022-08-28T23:53:04.405Z,58.48
2022-08-28T23:55:31.644Z,58.23
2022-08-28T23:58:00.526Z,58.61
